sensor_id;sensor_type;location;lat;lon;timestamp;P1;durP1;ratioP1;P2;durP2;ratioP2
48215;SDS011;34005;48.844;10.098;2023-04-06T00:01:34;11.75;;;6.60;;
48215;SDS011;34005;48.844;10.098;2023-04-06T00:04:01;14.57;;;7.53;;
48215;SDS011;34005;48.844;10.098;2023-04-06T00:06:30;10.80;;;6.45;;
48215;SDS011;34005;48.844;10.098;2023-04-06T00:08:58;9.60;;;6.82;;
48215;SDS011;34005;48.844;10.098;2023-04-06T00:11:25;8.77;;;6.93;;
48215;SDS011;34005;48.844;10.098;2023-04-06T00:13:55;8.68;;;6.70;;
48215;SDS011;34005;48.844;10.098;2023-04-06T00:16:22;11.13;;;6.53;;
48215;SDS011;34005;48.844;10.098;2023-04-06T00:18:52;13.95;;;7.07;;
48215;SDS011;34005;48.844;10.098;2023-04-06T00:21:20;9.88;;;7.22;;
48215;SDS011;34005;48.844;10.098;2023-04-06T00:23:48;9.95;;;6.60;;
48215;SDS011;34005;48.844;10.098;2023-04-06T00:26:16;8.32;;;5.97;;
48215;SDS011;34005;48.844;10.098;2023-04-06T00:28:44;8.55;;;6.25;;
48215;SDS011;34005;48.844;10.098;2023-04-06T00:31:13;8.77;;;6.32;;
48215;SDS011;34005;48.844;10.098;2023-04-06T00:33:40;8.13;;;6.40;;
48215;SDS011;34005;48.844;10.098;2023-04-06T00:36:08;11.68;;;7.55;;
48215;SDS011;34005;48.844;10.098;2023-04-06T00:38:36;10.50;;;7.00;;
48215;SDS011;34005;48.844;10.098;2023-04-06T00:41:04;7.72;;;6.45;;
48215;SDS011;34005;48.844;10.098;2023-04-06T00:43:31;9.60;;;6.45;;
48215;SDS011;34005;48.844;10.098;2023-04-06T00:45:59;11.02;;;6.68;;
48215;SDS011;34005;48.844;10.098;2023-04-06T00:48:28;9.68;;;6.88;;
48215;SDS011;34005;48.844;10.098;2023-04-06T00:50:57;9.35;;;6.95;;
48215;SDS011;34005;48.844;10.098;2023-04-06T00:53:25;8.43;;;6.20;;
48215;SDS011;34005;48.844;10.098;2023-04-06T00:56:23;7.97;;;5.88;;
48215;SDS011;34005;48.844;10.098;2023-04-06T00:58:52;17.15;;;7.97;;
48215;SDS011;34005;48.844;10.098;2023-04-06T01:01:20;8.75;;;6.68;;
48215;SDS011;34005;48.844;10.098;2023-04-06T01:03:47;8.38;;;6.75;;
48215;SDS011;34005;48.844;10.098;2023-04-06T01:06:16;8.48;;;6.60;;
48215;SDS011;34005;48.844;10.098;2023-04-06T01:08:44;9.18;;;6.97;;
48215;SDS011;34005;48.844;10.098;2023-04-06T01:11:12;9.45;;;6.45;;
48215;SDS011;34005;48.844;10.098;2023-04-06T01:13:41;11.30;;;6.50;;
48215;SDS011;34005;48.844;10.098;2023-04-06T01:16:09;11.77;;;7.05;;
48215;SDS011;34005;48.844;10.098;2023-04-06T01:18:37;9.63;;;7.28;;
48215;SDS011;34005;48.844;10.098;2023-04-06T01:21:05;12.10;;;6.40;;
48215;SDS011;34005;48.844;10.098;2023-04-06T01:23:36;10.23;;;6.55;;
48215;SDS011;34005;48.844;10.098;2023-04-06T01:26:03;9.93;;;6.82;;
48215;SDS011;34005;48.844;10.098;2023-04-06T01:28:31;12.10;;;7.30;;
48215;SDS011;34005;48.844;10.098;2023-04-06T01:30:59;8.40;;;6.95;;
48215;SDS011;34005;48.844;10.098;2023-04-06T01:33:27;8.85;;;6.88;;
48215;SDS011;34005;48.844;10.098;2023-04-06T01:35:54;7.68;;;6.18;;
48215;SDS011;34005;48.844;10.098;2023-04-06T01:38:22;9.07;;;6.90;;
48215;SDS011;34005;48.844;10.098;2023-04-06T01:40:52;8.40;;;6.47;;
48215;SDS011;34005;48.844;10.098;2023-04-06T01:43:19;8.90;;;7.03;;
48215;SDS011;34005;48.844;10.098;2023-04-06T01:45:47;9.13;;;6.22;;
48215;SDS011;34005;48.844;10.098;2023-04-06T01:48:15;9.27;;;6.80;;
48215;SDS011;34005;48.844;10.098;2023-04-06T01:50:42;10.70;;;6.72;;
48215;SDS011;34005;48.844;10.098;2023-04-06T01:53:10;10.13;;;6.60;;
48215;SDS011;34005;48.844;10.098;2023-04-06T01:55:38;10.52;;;7.22;;
48215;SDS011;34005;48.844;10.098;2023-04-06T01:58:07;12.43;;;7.07;;
48215;SDS011;34005;48.844;10.098;2023-04-06T02:00:35;9.07;;;7.20;;
48215;SDS011;34005;48.844;10.098;2023-04-06T02:03:03;9.32;;;6.72;;
48215;SDS011;34005;48.844;10.098;2023-04-06T02:05:31;12.77;;;7.93;;
48215;SDS011;34005;48.844;10.098;2023-04-06T02:08:03;8.85;;;6.97;;
48215;SDS011;34005;48.844;10.098;2023-04-06T02:10:32;13.43;;;7.70;;
48215;SDS011;34005;48.844;10.098;2023-04-06T02:13:00;10.10;;;6.25;;
48215;SDS011;34005;48.844;10.098;2023-04-06T02:15:29;10.93;;;7.18;;
48215;SDS011;34005;48.844;10.098;2023-04-06T02:17:57;9.45;;;7.00;;
48215;SDS011;34005;48.844;10.098;2023-04-06T02:20:24;10.00;;;7.40;;
48215;SDS011;34005;48.844;10.098;2023-04-06T02:22:52;8.50;;;6.57;;
48215;SDS011;34005;48.844;10.098;2023-04-06T02:25:19;8.73;;;6.82;;
48215;SDS011;34005;48.844;10.098;2023-04-06T02:27:47;8.90;;;6.68;;
48215;SDS011;34005;48.844;10.098;2023-04-06T02:30:14;9.93;;;6.93;;
48215;SDS011;34005;48.844;10.098;2023-04-06T02:32:43;11.20;;;6.85;;
48215;SDS011;34005;48.844;10.098;2023-04-06T02:35:11;10.70;;;7.28;;
48215;SDS011;34005;48.844;10.098;2023-04-06T02:37:39;8.77;;;6.35;;
48215;SDS011;34005;48.844;10.098;2023-04-06T02:40:07;8.55;;;7.28;;
48215;SDS011;34005;48.844;10.098;2023-04-06T02:42:35;8.52;;;6.55;;
48215;SDS011;34005;48.844;10.098;2023-04-06T02:45:03;8.95;;;7.07;;
48215;SDS011;34005;48.844;10.098;2023-04-06T02:47:32;10.85;;;7.18;;
48215;SDS011;34005;48.844;10.098;2023-04-06T02:50:01;11.43;;;7.57;;
48215;SDS011;34005;48.844;10.098;2023-04-06T02:52:29;10.05;;;7.15;;
48215;SDS011;34005;48.844;10.098;2023-04-06T02:54:56;9.45;;;6.70;;
48215;SDS011;34005;48.844;10.098;2023-04-06T02:57:24;11.13;;;7.10;;
48215;SDS011;34005;48.844;10.098;2023-04-06T02:59:51;9.55;;;6.97;;
48215;SDS011;34005;48.844;10.098;2023-04-06T03:02:19;10.15;;;6.60;;
48215;SDS011;34005;48.844;10.098;2023-04-06T03:04:46;10.10;;;7.25;;
48215;SDS011;34005;48.844;10.098;2023-04-06T03:07:15;11.80;;;6.95;;
48215;SDS011;34005;48.844;10.098;2023-04-06T03:09:43;10.52;;;7.38;;
48215;SDS011;34005;48.844;10.098;2023-04-06T03:12:11;13.32;;;7.13;;
48215;SDS011;34005;48.844;10.098;2023-04-06T03:14:38;11.65;;;7.60;;
48215;SDS011;34005;48.844;10.098;2023-04-06T03:17:06;12.45;;;7.18;;
48215;SDS011;34005;48.844;10.098;2023-04-06T03:19:33;11.95;;;6.68;;
48215;SDS011;34005;48.844;10.098;2023-04-06T03:22:01;7.80;;;6.20;;
48215;SDS011;34005;48.844;10.098;2023-04-06T03:24:30;9.40;;;7.22;;
48215;SDS011;34005;48.844;10.098;2023-04-06T03:26:58;10.85;;;7.65;;
48215;SDS011;34005;48.844;10.098;2023-04-06T03:29:26;9.77;;;6.90;;
48215;SDS011;34005;48.844;10.098;2023-04-06T03:31:54;12.82;;;8.77;;
48215;SDS011;34005;48.844;10.098;2023-04-06T03:34:21;10.35;;;7.32;;
48215;SDS011;34005;48.844;10.098;2023-04-06T03:36:49;9.48;;;7.32;;
48215;SDS011;34005;48.844;10.098;2023-04-06T03:39:35;15.27;;;7.32;;
48215;SDS011;34005;48.844;10.098;2023-04-06T03:42:03;10.55;;;7.57;;
48215;SDS011;34005;48.844;10.098;2023-04-06T03:44:31;12.07;;;7.57;;
48215;SDS011;34005;48.844;10.098;2023-04-06T03:46:58;15.35;;;8.77;;
48215;SDS011;34005;48.844;10.098;2023-04-06T03:49:27;11.13;;;7.82;;
48215;SDS011;34005;48.844;10.098;2023-04-06T03:51:55;12.95;;;8.23;;
48215;SDS011;34005;48.844;10.098;2023-04-06T03:54:23;9.57;;;7.55;;
48215;SDS011;34005;48.844;10.098;2023-04-06T03:56:52;11.23;;;7.82;;
48215;SDS011;34005;48.844;10.098;2023-04-06T03:59:19;12.05;;;8.02;;
48215;SDS011;34005;48.844;10.098;2023-04-06T04:01:47;12.57;;;8.20;;
48215;SDS011;34005;48.844;10.098;2023-04-06T04:04:15;14.30;;;8.98;;
48215;SDS011;34005;48.844;10.098;2023-04-06T04:06:42;15.70;;;8.63;;
48215;SDS011;34005;48.844;10.098;2023-04-06T04:09:10;18.25;;;10.30;;
48215;SDS011;34005;48.844;10.098;2023-04-06T04:11:37;18.52;;;10.15;;
48215;SDS011;34005;48.844;10.098;2023-04-06T04:14:06;18.83;;;10.82;;
48215;SDS011;34005;48.844;10.098;2023-04-06T04:16:34;19.52;;;10.90;;
48215;SDS011;34005;48.844;10.098;2023-04-06T04:19:02;22.65;;;11.27;;
48215;SDS011;34005;48.844;10.098;2023-04-06T04:21:29;16.48;;;10.85;;
48215;SDS011;34005;48.844;10.098;2023-04-06T04:23:57;16.13;;;9.95;;
48215;SDS011;34005;48.844;10.098;2023-04-06T04:26:25;18.13;;;10.65;;
48215;SDS011;34005;48.844;10.098;2023-04-06T04:28:52;19.42;;;10.27;;
48215;SDS011;34005;48.844;10.098;2023-04-06T04:31:21;15.73;;;10.13;;
48215;SDS011;34005;48.844;10.098;2023-04-06T04:33:49;17.92;;;9.38;;
48215;SDS011;34005;48.844;10.098;2023-04-06T04:36:17;20.17;;;11.00;;
48215;SDS011;34005;48.844;10.098;2023-04-06T04:38:44;15.25;;;10.80;;
48215;SDS011;34005;48.844;10.098;2023-04-06T04:41:12;19.00;;;10.18;;
48215;SDS011;34005;48.844;10.098;2023-04-06T04:43:39;15.23;;;9.25;;
48215;SDS011;34005;48.844;10.098;2023-04-06T04:46:07;12.15;;;9.10;;
48215;SDS011;34005;48.844;10.098;2023-04-06T04:48:36;15.23;;;10.70;;
48215;SDS011;34005;48.844;10.098;2023-04-06T04:51:05;15.68;;;9.35;;
48215;SDS011;34005;48.844;10.098;2023-04-06T04:53:33;16.77;;;9.60;;
48215;SDS011;34005;48.844;10.098;2023-04-06T04:56:00;16.00;;;9.23;;
48215;SDS011;34005;48.844;10.098;2023-04-06T04:58:28;11.73;;;8.52;;
48215;SDS011;34005;48.844;10.098;2023-04-06T05:00:56;13.15;;;8.85;;
48215;SDS011;34005;48.844;10.098;2023-04-06T05:03:24;16.20;;;8.60;;
48215;SDS011;34005;48.844;10.098;2023-04-06T05:05:55;17.33;;;9.02;;
48215;SDS011;34005;48.844;10.098;2023-04-06T05:08:22;16.30;;;9.48;;
48215;SDS011;34005;48.844;10.098;2023-04-06T05:10:50;16.80;;;9.40;;
48215;SDS011;34005;48.844;10.098;2023-04-06T05:13:17;14.80;;;10.60;;
48215;SDS011;34005;48.844;10.098;2023-04-06T05:15:45;12.55;;;9.75;;
48215;SDS011;34005;48.844;10.098;2023-04-06T05:18:13;18.17;;;10.23;;
48215;SDS011;34005;48.844;10.098;2023-04-06T05:20:41;17.73;;;9.68;;
48215;SDS011;34005;48.844;10.098;2023-04-06T05:23:11;13.45;;;9.55;;
48215;SDS011;34005;48.844;10.098;2023-04-06T05:25:39;13.13;;;9.25;;
48215;SDS011;34005;48.844;10.098;2023-04-06T05:28:06;15.43;;;9.63;;
48215;SDS011;34005;48.844;10.098;2023-04-06T05:30:34;15.63;;;10.13;;
48215;SDS011;34005;48.844;10.098;2023-04-06T05:33:02;16.05;;;9.13;;
48215;SDS011;34005;48.844;10.098;2023-04-06T05:35:29;18.40;;;9.38;;
48215;SDS011;34005;48.844;10.098;2023-04-06T05:37:57;16.05;;;9.52;;
48215;SDS011;34005;48.844;10.098;2023-04-06T05:40:26;16.50;;;9.95;;
48215;SDS011;34005;48.844;10.098;2023-04-06T05:42:54;16.40;;;10.30;;
48215;SDS011;34005;48.844;10.098;2023-04-06T05:45:21;19.52;;;10.35;;
48215;SDS011;34005;48.844;10.098;2023-04-06T05:47:49;14.88;;;10.30;;
48215;SDS011;34005;48.844;10.098;2023-04-06T05:50:16;15.45;;;10.68;;
48215;SDS011;34005;48.844;10.098;2023-04-06T05:52:44;13.48;;;10.20;;
48215;SDS011;34005;48.844;10.098;2023-04-06T05:55:12;20.60;;;10.57;;
48215;SDS011;34005;48.844;10.098;2023-04-06T05:57:41;13.57;;;10.93;;
48215;SDS011;34005;48.844;10.098;2023-04-06T06:00:09;14.75;;;11.05;;
48215;SDS011;34005;48.844;10.098;2023-04-06T06:02:38;14.80;;;10.68;;
48215;SDS011;34005;48.844;10.098;2023-04-06T06:05:08;13.23;;;9.70;;
48215;SDS011;34005;48.844;10.098;2023-04-06T06:07:36;16.58;;;9.55;;
48215;SDS011;34005;48.844;10.098;2023-04-06T06:10:03;16.60;;;11.43;;
48215;SDS011;34005;48.844;10.098;2023-04-06T06:12:31;13.95;;;10.15;;
48215;SDS011;34005;48.844;10.098;2023-04-06T06:15:00;15.93;;;10.05;;
48215;SDS011;34005;48.844;10.098;2023-04-06T06:17:28;15.65;;;10.80;;
48215;SDS011;34005;48.844;10.098;2023-04-06T06:19:55;14.90;;;10.45;;
48215;SDS011;34005;48.844;10.098;2023-04-06T06:22:23;19.90;;;10.35;;
48215;SDS011;34005;48.844;10.098;2023-04-06T06:24:50;13.15;;;10.38;;
48215;SDS011;34005;48.844;10.098;2023-04-06T06:27:18;13.45;;;9.65;;
48215;SDS011;34005;48.844;10.098;2023-04-06T06:29:45;13.38;;;9.38;;
48215;SDS011;34005;48.844;10.098;2023-04-06T06:32:14;13.93;;;8.98;;
48215;SDS011;34005;48.844;10.098;2023-04-06T06:34:42;13.15;;;9.13;;
48215;SDS011;34005;48.844;10.098;2023-04-06T06:37:09;15.50;;;10.10;;
48215;SDS011;34005;48.844;10.098;2023-04-06T06:39:37;10.85;;;8.70;;
48215;SDS011;34005;48.844;10.098;2023-04-06T06:42:05;13.98;;;9.88;;
48215;SDS011;34005;48.844;10.098;2023-04-06T06:44:32;16.58;;;10.63;;
48215;SDS011;34005;48.844;10.098;2023-04-06T06:47:00;19.52;;;11.73;;
48215;SDS011;34005;48.844;10.098;2023-04-06T06:49:29;12.27;;;9.85;;
48215;SDS011;34005;48.844;10.098;2023-04-06T06:51:57;12.00;;;9.27;;
48215;SDS011;34005;48.844;10.098;2023-04-06T06:54:24;12.48;;;9.27;;
48215;SDS011;34005;48.844;10.098;2023-04-06T06:56:52;17.90;;;10.07;;
48215;SDS011;34005;48.844;10.098;2023-04-06T06:59:20;11.02;;;8.15;;
48215;SDS011;34005;48.844;10.098;2023-04-06T07:01:49;15.88;;;9.52;;
48215;SDS011;34005;48.844;10.098;2023-04-06T07:04:17;13.88;;;9.55;;
48215;SDS011;34005;48.844;10.098;2023-04-06T07:06:46;12.70;;;9.15;;
48215;SDS011;34005;48.844;10.098;2023-04-06T07:09:13;13.70;;;9.35;;
48215;SDS011;34005;48.844;10.098;2023-04-06T07:11:41;11.30;;;9.32;;
48215;SDS011;34005;48.844;10.098;2023-04-06T07:14:08;11.10;;;9.05;;
48215;SDS011;34005;48.844;10.098;2023-04-06T07:16:37;12.23;;;9.48;;
48215;SDS011;34005;48.844;10.098;2023-04-06T07:19:05;12.43;;;9.15;;
48215;SDS011;34005;48.844;10.098;2023-04-06T07:21:33;14.30;;;9.70;;
48215;SDS011;34005;48.844;10.098;2023-04-06T07:24:01;12.10;;;8.75;;
48215;SDS011;34005;48.844;10.098;2023-04-06T07:26:29;12.43;;;9.75;;
48215;SDS011;34005;48.844;10.098;2023-04-06T07:28:57;11.80;;;9.63;;
48215;SDS011;34005;48.844;10.098;2023-04-06T07:31:24;14.73;;;10.10;;
48215;SDS011;34005;48.844;10.098;2023-04-06T07:33:52;13.60;;;9.13;;
48215;SDS011;34005;48.844;10.098;2023-04-06T07:36:20;13.38;;;9.93;;
48215;SDS011;34005;48.844;10.098;2023-04-06T07:38:47;11.80;;;9.43;;
48215;SDS011;34005;48.844;10.098;2023-04-06T07:41:16;12.48;;;10.23;;
48215;SDS011;34005;48.844;10.098;2023-04-06T07:43:44;16.20;;;10.27;;
48215;SDS011;34005;48.844;10.098;2023-04-06T07:46:11;14.35;;;10.70;;
48215;SDS011;34005;48.844;10.098;2023-04-06T07:48:39;12.73;;;8.82;;
48215;SDS011;34005;48.844;10.098;2023-04-06T07:51:06;12.77;;;9.85;;
48215;SDS011;34005;48.844;10.098;2023-04-06T07:53:36;11.10;;;8.38;;
48215;SDS011;34005;48.844;10.098;2023-04-06T07:56:04;12.02;;;9.25;;
48215;SDS011;34005;48.844;10.098;2023-04-06T07:58:33;16.52;;;7.85;;
48215;SDS011;34005;48.844;10.098;2023-04-06T08:01:00;10.90;;;8.95;;
48215;SDS011;34005;48.844;10.098;2023-04-06T08:03:28;11.18;;;8.18;;
48215;SDS011;34005;48.844;10.098;2023-04-06T08:05:56;11.27;;;9.30;;
48215;SDS011;34005;48.844;10.098;2023-04-06T08:08:24;12.63;;;9.43;;
48215;SDS011;34005;48.844;10.098;2023-04-06T08:10:51;12.82;;;8.93;;
48215;SDS011;34005;48.844;10.098;2023-04-06T08:13:19;15.63;;;9.80;;
48215;SDS011;34005;48.844;10.098;2023-04-06T08:15:48;12.07;;;9.25;;
48215;SDS011;34005;48.844;10.098;2023-04-06T08:18:16;13.75;;;9.95;;
48215;SDS011;34005;48.844;10.098;2023-04-06T08:20:44;12.00;;;9.45;;
48215;SDS011;34005;48.844;10.098;2023-04-06T08:23:11;14.18;;;9.20;;
48215;SDS011;34005;48.844;10.098;2023-04-06T08:25:39;13.18;;;9.55;;
48215;SDS011;34005;48.844;10.098;2023-04-06T08:28:07;11.95;;;9.45;;
48215;SDS011;34005;48.844;10.098;2023-04-06T08:30:35;12.93;;;9.25;;
48215;SDS011;34005;48.844;10.098;2023-04-06T08:33:04;10.25;;;8.25;;
48215;SDS011;34005;48.844;10.098;2023-04-06T08:35:32;10.73;;;8.57;;
48215;SDS011;34005;48.844;10.098;2023-04-06T08:38:00;11.98;;;9.38;;
48215;SDS011;34005;48.844;10.098;2023-04-06T08:40:27;13.00;;;9.25;;
48215;SDS011;34005;48.844;10.098;2023-04-06T08:42:55;10.27;;;8.65;;
48215;SDS011;34005;48.844;10.098;2023-04-06T08:45:24;11.82;;;8.60;;
48215;SDS011;34005;48.844;10.098;2023-04-06T08:47:51;12.82;;;8.32;;
48215;SDS011;34005;48.844;10.098;2023-04-06T08:50:22;8.55;;;6.78;;
48215;SDS011;34005;48.844;10.098;2023-04-06T08:52:52;10.88;;;7.57;;
48215;SDS011;34005;48.844;10.098;2023-04-06T08:55:19;9.20;;;6.47;;
48215;SDS011;34005;48.844;10.098;2023-04-06T08:57:49;8.23;;;6.95;;
48215;SDS011;34005;48.844;10.098;2023-04-06T09:00:19;8.52;;;7.28;;
48215;SDS011;34005;48.844;10.098;2023-04-06T09:02:48;10.23;;;7.55;;
48215;SDS011;34005;48.844;10.098;2023-04-06T09:05:17;11.05;;;8.07;;
48215;SDS011;34005;48.844;10.098;2023-04-06T09:07:47;8.65;;;7.75;;
48215;SDS011;34005;48.844;10.098;2023-04-06T09:10:15;10.63;;;7.88;;
48215;SDS011;34005;48.844;10.098;2023-04-06T09:12:43;9.85;;;7.60;;
48215;SDS011;34005;48.844;10.098;2023-04-06T09:15:17;9.80;;;8.13;;
48215;SDS011;34005;48.844;10.098;2023-04-06T09:17:49;9.60;;;8.27;;
48215;SDS011;34005;48.844;10.098;2023-04-06T09:20:22;10.23;;;8.30;;
48215;SDS011;34005;48.844;10.098;2023-04-06T09:22:53;9.20;;;8.18;;
48215;SDS011;34005;48.844;10.098;2023-04-06T09:25:22;8.23;;;7.38;;
48215;SDS011;34005;48.844;10.098;2023-04-06T09:27:58;8.75;;;7.47;;
48215;SDS011;34005;48.844;10.098;2023-04-06T09:30:27;10.38;;;6.70;;
48215;SDS011;34005;48.844;10.098;2023-04-06T09:32:54;8.95;;;6.70;;
48215;SDS011;34005;48.844;10.098;2023-04-06T09:35:23;8.00;;;6.97;;
48215;SDS011;34005;48.844;10.098;2023-04-06T09:37:54;6.85;;;6.10;;
48215;SDS011;34005;48.844;10.098;2023-04-06T09:40:22;6.50;;;5.65;;
48215;SDS011;34005;48.844;10.098;2023-04-06T09:42:50;8.20;;;5.30;;
48215;SDS011;34005;48.844;10.098;2023-04-06T09:45:20;9.57;;;6.90;;
48215;SDS011;34005;48.844;10.098;2023-04-06T09:47:48;6.80;;;6.13;;
48215;SDS011;34005;48.844;10.098;2023-04-06T09:50:18;8.98;;;7.10;;
48215;SDS011;34005;48.844;10.098;2023-04-06T09:52:47;8.15;;;7.35;;
48215;SDS011;34005;48.844;10.098;2023-04-06T09:55:20;10.63;;;7.00;;
48215;SDS011;34005;48.844;10.098;2023-04-06T09:57:55;10.00;;;7.53;;
48215;SDS011;34005;48.844;10.098;2023-04-06T10:00:28;8.95;;;7.47;;
48215;SDS011;34005;48.844;10.098;2023-04-06T10:03:02;10.60;;;7.75;;
48215;SDS011;34005;48.844;10.098;2023-04-06T10:05:41;8.55;;;5.97;;
48215;SDS011;34005;48.844;10.098;2023-04-06T10:08:13;8.55;;;7.32;;
48215;SDS011;34005;48.844;10.098;2023-04-06T10:10:43;9.68;;;7.82;;
48215;SDS011;34005;48.844;10.098;2023-04-06T10:13:12;8.20;;;7.28;;
48215;SDS011;34005;48.844;10.098;2023-04-06T10:15:39;9.63;;;7.57;;
48215;SDS011;34005;48.844;10.098;2023-04-06T10:18:08;9.68;;;7.28;;
48215;SDS011;34005;48.844;10.098;2023-04-06T10:20:38;7.82;;;7.03;;
48215;SDS011;34005;48.844;10.098;2023-04-06T10:23:09;8.05;;;6.68;;
48215;SDS011;34005;48.844;10.098;2023-04-06T10:25:52;8.07;;;6.25;;
48215;SDS011;34005;48.844;10.098;2023-04-06T10:28:21;7.88;;;6.68;;
48215;SDS011;34005;48.844;10.098;2023-04-06T10:30:56;8.52;;;6.00;;
48215;SDS011;34005;48.844;10.098;2023-04-06T10:33:25;8.60;;;7.70;;
48215;SDS011;34005;48.844;10.098;2023-04-06T10:35:53;8.23;;;7.43;;
48215;SDS011;34005;48.844;10.098;2023-04-06T10:38:21;7.90;;;6.40;;
48215;SDS011;34005;48.844;10.098;2023-04-06T10:41:05;9.57;;;6.88;;
48215;SDS011;34005;48.844;10.098;2023-04-06T10:43:34;10.38;;;7.13;;
48215;SDS011;34005;48.844;10.098;2023-04-06T10:46:03;11.25;;;6.93;;
48215;SDS011;34005;48.844;10.098;2023-04-06T10:48:38;9.05;;;7.30;;
48215;SDS011;34005;48.844;10.098;2023-04-06T10:51:08;8.63;;;7.22;;
48215;SDS011;34005;48.844;10.098;2023-04-06T10:53:37;9.38;;;7.50;;
48215;SDS011;34005;48.844;10.098;2023-04-06T10:56:08;11.77;;;7.00;;
48215;SDS011;34005;48.844;10.098;2023-04-06T10:58:38;7.55;;;6.45;;
48215;SDS011;34005;48.844;10.098;2023-04-06T11:01:11;9.15;;;7.03;;
48215;SDS011;34005;48.844;10.098;2023-04-06T11:03:44;9.23;;;7.13;;
48215;SDS011;34005;48.844;10.098;2023-04-06T11:06:17;9.85;;;6.97;;
48215;SDS011;34005;48.844;10.098;2023-04-06T11:08:45;9.93;;;6.35;;
48215;SDS011;34005;48.844;10.098;2023-04-06T11:11:15;10.20;;;7.45;;
48215;SDS011;34005;48.844;10.098;2023-04-06T11:13:45;7.57;;;6.78;;
48215;SDS011;34005;48.844;10.098;2023-04-06T11:16:17;8.95;;;6.63;;
48215;SDS011;34005;48.844;10.098;2023-04-06T11:18:52;7.65;;;6.22;;
48215;SDS011;34005;48.844;10.098;2023-04-06T11:21:31;8.60;;;6.78;;
48215;SDS011;34005;48.844;10.098;2023-04-06T11:24:07;8.80;;;7.80;;
48215;SDS011;34005;48.844;10.098;2023-04-06T11:26:41;8.77;;;6.63;;
48215;SDS011;34005;48.844;10.098;2023-04-06T11:29:11;7.93;;;6.72;;
48215;SDS011;34005;48.844;10.098;2023-04-06T11:31:39;8.07;;;6.75;;
48215;SDS011;34005;48.844;10.098;2023-04-06T11:34:09;14.18;;;7.20;;
48215;SDS011;34005;48.844;10.098;2023-04-06T11:36:39;7.68;;;6.60;;
48215;SDS011;34005;48.844;10.098;2023-04-06T11:39:08;10.30;;;7.20;;
48215;SDS011;34005;48.844;10.098;2023-04-06T11:41:37;7.53;;;6.20;;
48215;SDS011;34005;48.844;10.098;2023-04-06T11:44:06;8.30;;;6.72;;
48215;SDS011;34005;48.844;10.098;2023-04-06T11:46:33;7.60;;;6.63;;
48215;SDS011;34005;48.844;10.098;2023-04-06T11:49:02;8.55;;;6.97;;
48215;SDS011;34005;48.844;10.098;2023-04-06T11:51:29;8.73;;;6.72;;
48215;SDS011;34005;48.844;10.098;2023-04-06T11:53:57;5.35;;;4.82;;
48215;SDS011;34005;48.844;10.098;2023-04-06T11:56:25;7.80;;;6.72;;
48215;SDS011;34005;48.844;10.098;2023-04-06T11:58:54;8.07;;;7.00;;
48215;SDS011;34005;48.844;10.098;2023-04-06T12:01:24;7.80;;;5.70;;
48215;SDS011;34005;48.844;10.098;2023-04-06T12:03:52;7.53;;;6.28;;
48215;SDS011;34005;48.844;10.098;2023-04-06T12:06:21;6.93;;;6.15;;
48215;SDS011;34005;48.844;10.098;2023-04-06T12:08:48;7.07;;;6.32;;
48215;SDS011;34005;48.844;10.098;2023-04-06T12:11:16;6.40;;;5.68;;
48215;SDS011;34005;48.844;10.098;2023-04-06T12:13:46;7.47;;;6.38;;
48215;SDS011;34005;48.844;10.098;2023-04-06T12:16:13;8.45;;;6.30;;
48215;SDS011;34005;48.844;10.098;2023-04-06T12:18:42;8.48;;;6.20;;
48215;SDS011;34005;48.844;10.098;2023-04-06T12:21:10;7.53;;;6.53;;
48215;SDS011;34005;48.844;10.098;2023-04-06T12:23:38;8.40;;;6.15;;
48215;SDS011;34005;48.844;10.098;2023-04-06T12:26:05;7.93;;;6.07;;
48215;SDS011;34005;48.844;10.098;2023-04-06T12:28:38;8.15;;;6.13;;
48215;SDS011;34005;48.844;10.098;2023-04-06T12:31:07;7.97;;;6.38;;
48215;SDS011;34005;48.844;10.098;2023-04-06T12:33:43;7.15;;;5.55;;
48215;SDS011;34005;48.844;10.098;2023-04-06T12:36:11;7.22;;;6.13;;
48215;SDS011;34005;48.844;10.098;2023-04-06T12:38:39;7.75;;;6.68;;
48215;SDS011;34005;48.844;10.098;2023-04-06T12:41:07;6.18;;;5.57;;
48215;SDS011;34005;48.844;10.098;2023-04-06T12:43:35;6.80;;;5.70;;
48215;SDS011;34005;48.844;10.098;2023-04-06T12:46:02;9.23;;;6.03;;
48215;SDS011;34005;48.844;10.098;2023-04-06T12:48:31;6.55;;;5.07;;
48215;SDS011;34005;48.844;10.098;2023-04-06T12:51:00;10.77;;;5.28;;
48215;SDS011;34005;48.844;10.098;2023-04-06T12:53:30;7.82;;;6.68;;
48215;SDS011;34005;48.844;10.098;2023-04-06T12:55:58;6.82;;;6.13;;
48215;SDS011;34005;48.844;10.098;2023-04-06T12:58:27;6.05;;;5.47;;
48215;SDS011;34005;48.844;10.098;2023-04-06T13:00:55;6.00;;;5.38;;
48215;SDS011;34005;48.844;10.098;2023-04-06T13:03:29;7.55;;;5.68;;
48215;SDS011;34005;48.844;10.098;2023-04-06T13:05:56;6.13;;;5.35;;
48215;SDS011;34005;48.844;10.098;2023-04-06T13:08:28;7.18;;;5.47;;
48215;SDS011;34005;48.844;10.098;2023-04-06T13:10:55;6.53;;;5.22;;
48215;SDS011;34005;48.844;10.098;2023-04-06T13:13:24;5.63;;;4.80;;
48215;SDS011;34005;48.844;10.098;2023-04-06T13:15:52;5.15;;;4.65;;
48215;SDS011;34005;48.844;10.098;2023-04-06T13:18:21;5.85;;;5.25;;
48215;SDS011;34005;48.844;10.098;2023-04-06T13:20:50;5.88;;;5.28;;
48215;SDS011;34005;48.844;10.098;2023-04-06T13:23:19;8.02;;;5.15;;
48215;SDS011;34005;48.844;10.098;2023-04-06T13:25:47;6.68;;;5.00;;
48215;SDS011;34005;48.844;10.098;2023-04-06T13:28:14;5.45;;;4.95;;
48215;SDS011;34005;48.844;10.098;2023-04-06T13:30:42;5.40;;;4.90;;
48215;SDS011;34005;48.844;10.098;2023-04-06T13:33:10;7.13;;;4.72;;
48215;SDS011;34005;48.844;10.098;2023-04-06T13:35:43;4.57;;;4.18;;
48215;SDS011;34005;48.844;10.098;2023-04-06T13:38:13;6.35;;;4.82;;
48215;SDS011;34005;48.844;10.098;2023-04-06T13:40:42;6.43;;;5.13;;
48215;SDS011;34005;48.844;10.098;2023-04-06T13:43:10;5.78;;;5.18;;
48215;SDS011;34005;48.844;10.098;2023-04-06T13:45:38;5.65;;;4.80;;
48215;SDS011;34005;48.844;10.098;2023-04-06T13:48:06;5.90;;;4.80;;
48215;SDS011;34005;48.844;10.098;2023-04-06T13:50:34;6.30;;;5.25;;
48215;SDS011;34005;48.844;10.098;2023-04-06T13:53:01;6.55;;;5.07;;
48215;SDS011;34005;48.844;10.098;2023-04-06T13:55:29;5.43;;;4.75;;
48215;SDS011;34005;48.844;10.098;2023-04-06T13:57:58;5.85;;;5.20;;
48215;SDS011;34005;48.844;10.098;2023-04-06T14:00:26;4.47;;;4.07;;
48215;SDS011;34005;48.844;10.098;2023-04-06T14:02:54;4.70;;;4.20;;
48215;SDS011;34005;48.844;10.098;2023-04-06T14:05:22;5.90;;;5.13;;
48215;SDS011;34005;48.844;10.098;2023-04-06T14:07:49;4.80;;;4.30;;
48215;SDS011;34005;48.844;10.098;2023-04-06T14:10:17;8.23;;;4.47;;
48215;SDS011;34005;48.844;10.098;2023-04-06T14:12:47;5.75;;;4.90;;
48215;SDS011;34005;48.844;10.098;2023-04-06T14:15:17;7.03;;;5.25;;
48215;SDS011;34005;48.844;10.098;2023-04-06T14:21:33;6.72;;;5.00;;
48215;SDS011;34005;48.844;10.098;2023-04-06T14:25:15;4.85;;;4.22;;
48215;SDS011;34005;48.844;10.098;2023-04-06T14:28:22;5.47;;;3.88;;
48215;SDS011;34005;48.844;10.098;2023-04-06T14:31:23;5.03;;;4.30;;
48215;SDS011;34005;48.844;10.098;2023-04-06T14:34:16;5.35;;;4.40;;
48215;SDS011;34005;48.844;10.098;2023-04-06T14:37:01;5.55;;;4.72;;
48215;SDS011;34005;48.844;10.098;2023-04-06T14:47:00;6.90;;;5.30;;
48215;SDS011;34005;48.844;10.098;2023-04-06T14:53:04;5.55;;;4.47;;